TimeMST,TemperatureF,Dew PointF,Humidity,Sea Level PressureIn,VisibilityMPH,Wind Direction,Wind SpeedMPH,Gust SpeedMPH,PrecipitationIn,Events,Conditions,WindDirDegrees,DateUTC
12:53 AM,21.9,17.1,82,30.29,10.0,SW,4.6,-,N/A,,Partly Cloudy,230,2012-12-21 07:53:00
1:53 AM,24.1,17.1,75,30.26,10.0,SSE,5.8,-,N/A,,Partly Cloudy,160,2012-12-21 08:53:00
2:53 AM,21.9,18.0,85,30.26,10.0,SW,4.6,-,N/A,,Clear,220,2012-12-21 09:53:00
3:53 AM,23.0,17.1,78,30.23,10.0,Calm,Calm,-,N/A,,Clear,0,2012-12-21 10:53:00
4:53 AM,23.0,17.1,78,30.22,10.0,SW,3.5,-,N/A,,Clear,230,2012-12-21 11:53:00
5:53 AM,26.1,12.9,58,30.22,10.0,Variable,3.5,-,N/A,,Clear,0,2012-12-21 12:53:00
6:53 AM,25.0,12.9,60,30.22,10.0,SSW,5.8,-,N/A,,Clear,200,2012-12-21 13:53:00
7:53 AM,26.1,15.1,63,30.22,10.0,WSW,10.4,-,N/A,,Partly Cloudy,240,2012-12-21 14:53:00
8:53 AM,28.0,15.1,58,30.22,10.0,SE,4.6,-,N/A,,Partly Cloudy,130,2012-12-21 15:53:00
9:53 AM,33.1,14.0,46,30.19,10.0,South,6.9,-,N/A,,Partly Cloudy,190,2012-12-21 16:53:00
10:53 AM,35.1,17.1,48,30.18,10.0,Variable,4.6,-,N/A,,Partly Cloudy,0,2012-12-21 17:53:00
11:53 AM,37.9,15.1,39,30.15,10.0,Calm,Calm,-,N/A,,Partly Cloudy,0,2012-12-21 18:53:00
12:53 PM,39.9,18.0,41,30.12,10.0,Variable,3.5,-,N/A,,Partly Cloudy,0,2012-12-21 19:53:00
1:53 PM,39.0,19.0,45,30.10,10.0,NW,8.1,-,N/A,,Scattered Clouds,310,2012-12-21 20:53:00
2:53 PM,41.0,19.0,41,30.08,10.0,NW,5.8,-,N/A,,Scattered Clouds,310,2012-12-21 21:53:00
3:53 PM,39.9,19.0,43,30.08,10.0,WNW,4.6,-,N/A,,Mostly Cloudy,300,2012-12-21 22:53:00
4:53 PM,33.1,21.0,61,30.11,10.0,WNW,5.8,-,N/A,,Mostly Cloudy,300,2012-12-21 23:53:00
5:53 PM,30.0,21.0,69,30.12,10.0,NNW,6.9,-,N/A,,Scattered Clouds,340,2012-12-22 00:53:00
6:53 PM,28.9,21.0,72,30.14,10.0,Calm,Calm,-,N/A,,Mostly Cloudy,0,2012-12-22 01:53:00
7:53 PM,30.0,21.9,72,30.14,10.0,Calm,Calm,-,N/A,,Scattered Clouds,0,2012-12-22 02:53:00
8:53 PM,28.0,21.0,75,30.13,10.0,Calm,Calm,-,N/A,,Mostly Cloudy,0,2012-12-22 03:53:00
9:53 PM,27.0,21.0,78,30.12,10.0,East,5.8,-,N/A,,Mostly Cloudy,80,2012-12-22 04:53:00
10:53 PM,30.0,21.0,69,30.09,10.0,SE,3.5,-,N/A,,Mostly Cloudy,140,2012-12-22 05:53:00
11:53 PM,27.0,21.9,81,30.09,9.0,West,4.6,-,N/A,,Mostly Cloudy,260,2012-12-22 06:53:00